sensor_id;sensor_type;location;lat;lon;timestamp;temperature;humidity
22674;DHT22;11504;43.334;21.918;2023-07-22T00:02:10;26.1;100.0
22674;DHT22;11504;43.334;21.918;2023-07-22T00:06:47;26.0;100.0
22674;DHT22;11504;43.334;21.918;2023-07-22T00:11:23;26.0;100.0
22674;DHT22;11504;43.334;21.918;2023-07-22T00:16:01;26.0;100.0
22674;DHT22;11504;43.334;21.918;2023-07-22T00:20:38;26.0;100.0
22674;DHT22;11504;43.334;21.918;2023-07-22T00:25:14;26.0;100.0
22674;DHT22;11504;43.334;21.918;2023-07-22T00:29:50;26.0;100.0
22674;DHT22;11504;43.334;21.918;2023-07-22T00:34:27;26.0;100.0
22674;DHT22;11504;43.334;21.918;2023-07-22T00:39:03;26.0;100.0
22674;DHT22;11504;43.334;21.918;2023-07-22T00:43:40;26.0;100.0
22674;DHT22;11504;43.334;21.918;2023-07-22T00:48:19;25.9;100.0
22674;DHT22;11504;43.334;21.918;2023-07-22T00:52:57;25.9;100.0
22674;DHT22;11504;43.334;21.918;2023-07-22T00:57:35;25.8;100.0
22674;DHT22;11504;43.334;21.918;2023-07-22T01:02:13;25.8;100.0
22674;DHT22;11504;43.334;21.918;2023-07-22T01:06:52;25.8;100.0
22674;DHT22;11504;43.334;21.918;2023-07-22T01:11:31;25.8;100.0
22674;DHT22;11504;43.334;21.918;2023-07-22T01:16:09;25.7;100.0
22674;DHT22;11504;43.334;21.918;2023-07-22T01:20:48;25.7;100.0
22674;DHT22;11504;43.334;21.918;2023-07-22T01:25:25;25.7;100.0
22674;DHT22;11504;43.334;21.918;2023-07-22T01:30:05;25.7;100.0
22674;DHT22;11504;43.334;21.918;2023-07-22T01:34:45;25.7;100.0
22674;DHT22;11504;43.334;21.918;2023-07-22T01:39:22;25.7;100.0
22674;DHT22;11504;43.334;21.918;2023-07-22T01:43:58;25.7;100.0
22674;DHT22;11504;43.334;21.918;2023-07-22T01:48:35;25.7;100.0
22674;DHT22;11504;43.334;21.918;2023-07-22T01:53:12;25.7;100.0
22674;DHT22;11504;43.334;21.918;2023-07-22T01:57:48;25.7;100.0
22674;DHT22;11504;43.334;21.918;2023-07-22T02:02:25;25.7;100.0
22674;DHT22;11504;43.334;21.918;2023-07-22T02:07:02;25.6;100.0
22674;DHT22;11504;43.334;21.918;2023-07-22T02:11:40;25.6;100.0
22674;DHT22;11504;43.334;21.918;2023-07-22T02:16:16;25.6;100.0
22674;DHT22;11504;43.334;21.918;2023-07-22T02:20:53;25.6;100.0
22674;DHT22;11504;43.334;21.918;2023-07-22T02:25:33;25.6;100.0
22674;DHT22;11504;43.334;21.918;2023-07-22T02:30:10;25.4;100.0
22674;DHT22;11504;43.334;21.918;2023-07-22T02:34:47;25.4;100.0
22674;DHT22;11504;43.334;21.918;2023-07-22T02:39:24;25.2;100.0
22674;DHT22;11504;43.334;21.918;2023-07-22T02:44:00;25.2;100.0
22674;DHT22;11504;43.334;21.918;2023-07-22T02:48:36;25.2;100.0
22674;DHT22;11504;43.334;21.918;2023-07-22T02:53:13;25.2;100.0
22674;DHT22;11504;43.334;21.918;2023-07-22T02:57:50;25.1;100.0
22674;DHT22;11504;43.334;21.918;2023-07-22T03:02:26;25.1;100.0
22674;DHT22;11504;43.334;21.918;2023-07-22T03:07:02;25.0;100.0
22674;DHT22;11504;43.334;21.918;2023-07-22T03:11:39;25.0;100.0
22674;DHT22;11504;43.334;21.918;2023-07-22T03:16:16;25.0;100.0
22674;DHT22;11504;43.334;21.918;2023-07-22T03:20:52;25.0;100.0
22674;DHT22;11504;43.334;21.918;2023-07-22T03:25:29;25.0;100.0
22674;DHT22;11504;43.334;21.918;2023-07-22T03:30:12;24.8;100.0
22674;DHT22;11504;43.334;21.918;2023-07-22T03:34:56;24.8;100.0
22674;DHT22;11504;43.334;21.918;2023-07-22T03:39:33;24.7;100.0
22674;DHT22;11504;43.334;21.918;2023-07-22T03:44:10;24.7;100.0
22674;DHT22;11504;43.334;21.918;2023-07-22T03:48:46;24.6;100.0
22674;DHT22;11504;43.334;21.918;2023-07-22T03:53:23;24.6;100.0
22674;DHT22;11504;43.334;21.918;2023-07-22T03:58:00;24.5;100.0
22674;DHT22;11504;43.334;21.918;2023-07-22T04:02:37;24.5;100.0
22674;DHT22;11504;43.334;21.918;2023-07-22T04:07:14;24.8;100.0
22674;DHT22;11504;43.334;21.918;2023-07-22T04:11:52;24.8;100.0
22674;DHT22;11504;43.334;21.918;2023-07-22T04:16:28;25.0;100.0
22674;DHT22;11504;43.334;21.918;2023-07-22T04:21:05;25.0;100.0
22674;DHT22;11504;43.334;21.918;2023-07-22T04:25:44;26.0;100.0
22674;DHT22;11504;43.334;21.918;2023-07-22T04:30:21;26.0;100.0
22674;DHT22;11504;43.334;21.918;2023-07-22T04:34:57;26.0;100.0
22674;DHT22;11504;43.334;21.918;2023-07-22T04:39:34;26.9;100.0
22674;DHT22;11504;43.334;21.918;2023-07-22T04:44:12;26.9;100.0
22674;DHT22;11504;43.334;21.918;2023-07-22T04:48:49;28.2;100.0
22674;DHT22;11504;43.334;21.918;2023-07-22T04:53:26;28.2;100.0
22674;DHT22;11504;43.334;21.918;2023-07-22T04:58:02;29.6;100.0
22674;DHT22;11504;43.334;21.918;2023-07-22T05:02:39;29.6;100.0
22674;DHT22;11504;43.334;21.918;2023-07-22T05:07:15;32.2;100.0
22674;DHT22;11504;43.334;21.918;2023-07-22T05:11:51;32.2;100.0
22674;DHT22;11504;43.334;21.918;2023-07-22T05:16:28;34.8;100.0
22674;DHT22;11504;43.334;21.918;2023-07-22T05:21:04;34.8;100.0
22674;DHT22;11504;43.334;21.918;2023-07-22T05:25:40;34.8;100.0
22674;DHT22;11504;43.334;21.918;2023-07-22T05:30:16;37.3;100.0
22674;DHT22;11504;43.334;21.918;2023-07-22T05:34:53;37.3;100.0
22674;DHT22;11504;43.334;21.918;2023-07-22T05:39:29;39.8;100.0
22674;DHT22;11504;43.334;21.918;2023-07-22T05:44:05;39.8;100.0
22674;DHT22;11504;43.334;21.918;2023-07-22T05:48:41;40.5;100.0
22674;DHT22;11504;43.334;21.918;2023-07-22T05:53:17;40.5;100.0
22674;DHT22;11504;43.334;21.918;2023-07-22T05:57:54;41.2;100.0
22674;DHT22;11504;43.334;21.918;2023-07-22T06:02:32;41.2;100.0
22674;DHT22;11504;43.334;21.918;2023-07-22T06:07:09;41.7;100.0
22674;DHT22;11504;43.334;21.918;2023-07-22T06:11:46;41.7;100.0
22674;DHT22;11504;43.334;21.918;2023-07-22T06:16:22;42.2;100.0
22674;DHT22;11504;43.334;21.918;2023-07-22T06:20:59;42.2;100.0
22674;DHT22;11504;43.334;21.918;2023-07-22T06:25:36;42.2;100.0
22674;DHT22;11504;43.334;21.918;2023-07-22T06:30:13;41.6;100.0
22674;DHT22;11504;43.334;21.918;2023-07-22T06:34:50;41.6;100.0
22674;DHT22;11504;43.334;21.918;2023-07-22T06:39:27;40.9;100.0
22674;DHT22;11504;43.334;21.918;2023-07-22T06:44:03;40.9;100.0
22674;DHT22;11504;43.334;21.918;2023-07-22T06:48:40;39.8;100.0
22674;DHT22;11504;43.334;21.918;2023-07-22T06:53:17;39.8;100.0
22674;DHT22;11504;43.334;21.918;2023-07-22T06:57:55;38.6;100.0
22674;DHT22;11504;43.334;21.918;2023-07-22T07:02:32;38.6;100.0
22674;DHT22;11504;43.334;21.918;2023-07-22T07:07:09;38.8;100.0
22674;DHT22;11504;43.334;21.918;2023-07-22T07:11:45;38.8;100.0
22674;DHT22;11504;43.334;21.918;2023-07-22T07:16:26;39.0;100.0
22674;DHT22;11504;43.334;21.918;2023-07-22T07:21:07;39.0;100.0
22674;DHT22;11504;43.334;21.918;2023-07-22T07:25:44;39.0;100.0
22674;DHT22;11504;43.334;21.918;2023-07-22T07:30:20;39.1;100.0
22674;DHT22;11504;43.334;21.918;2023-07-22T07:34:57;39.1;100.0
22674;DHT22;11504;43.334;21.918;2023-07-22T07:39:33;39.2;100.0
22674;DHT22;11504;43.334;21.918;2023-07-22T07:44:10;39.2;100.0
22674;DHT22;11504;43.334;21.918;2023-07-22T07:48:49;39.1;100.0
22674;DHT22;11504;43.334;21.918;2023-07-22T07:53:29;39.1;100.0
22674;DHT22;11504;43.334;21.918;2023-07-22T07:58:06;39.0;100.0
22674;DHT22;11504;43.334;21.918;2023-07-22T08:02:42;39.0;100.0
22674;DHT22;11504;43.334;21.918;2023-07-22T08:07:19;38.2;100.0
22674;DHT22;11504;43.334;21.918;2023-07-22T08:11:55;38.2;100.0
22674;DHT22;11504;43.334;21.918;2023-07-22T08:16:31;37.5;100.0
22674;DHT22;11504;43.334;21.918;2023-07-22T08:21:07;37.5;100.0
22674;DHT22;11504;43.334;21.918;2023-07-22T08:25:44;37.5;100.0
22674;DHT22;11504;43.334;21.918;2023-07-22T08:30:20;37.6;100.0
22674;DHT22;11504;43.334;21.918;2023-07-22T08:34:57;37.6;100.0
22674;DHT22;11504;43.334;21.918;2023-07-22T08:39:33;37.6;100.0
22674;DHT22;11504;43.334;21.918;2023-07-22T08:44:14;37.6;100.0
22674;DHT22;11504;43.334;21.918;2023-07-22T08:49:07;38.0;100.0
22674;DHT22;11504;43.334;21.918;2023-07-22T08:53:47;38.0;100.0
22674;DHT22;11504;43.334;21.918;2023-07-22T08:58:29;38.4;100.0
22674;DHT22;11504;43.334;21.918;2023-07-22T09:03:11;38.4;100.0
22674;DHT22;11504;43.334;21.918;2023-07-22T09:07:50;38.5;100.0
22674;DHT22;11504;43.334;21.918;2023-07-22T09:12:29;38.5;100.0
22674;DHT22;11504;43.334;21.918;2023-07-22T09:17:09;38.6;100.0
22674;DHT22;11504;43.334;21.918;2023-07-22T09:21:45;38.6;100.0
22674;DHT22;11504;43.334;21.918;2023-07-22T09:26:22;38.6;100.0
22674;DHT22;11504;43.334;21.918;2023-07-22T09:31:02;38.6;100.0
22674;DHT22;11504;43.334;21.918;2023-07-22T09:35:46;38.6;100.0
22674;DHT22;11504;43.334;21.918;2023-07-22T09:40:28;38.5;100.0
22674;DHT22;11504;43.334;21.918;2023-07-22T09:45:06;38.5;100.0
22674;DHT22;11504;43.334;21.918;2023-07-22T09:49:45;38.2;100.0
22674;DHT22;11504;43.334;21.918;2023-07-22T09:54:21;38.2;100.0
22674;DHT22;11504;43.334;21.918;2023-07-22T09:58:59;37.9;100.0
22674;DHT22;11504;43.334;21.918;2023-07-22T10:03:44;37.9;100.0
22674;DHT22;11504;43.334;21.918;2023-07-22T10:08:34;37.5;100.0
22674;DHT22;11504;43.334;21.918;2023-07-22T10:13:14;37.5;100.0
22674;DHT22;11504;43.334;21.918;2023-07-22T10:17:53;37.1;100.0
22674;DHT22;11504;43.334;21.918;2023-07-22T10:22:36;37.1;100.0
22674;DHT22;11504;43.334;21.918;2023-07-22T10:27:16;37.0;100.0
22674;DHT22;11504;43.334;21.918;2023-07-22T10:31:54;37.0;100.0
22674;DHT22;11504;43.334;21.918;2023-07-22T10:36:31;37.0;100.0
22674;DHT22;11504;43.334;21.918;2023-07-22T10:41:14;37.0;100.0
22674;DHT22;11504;43.334;21.918;2023-07-22T10:45:55;37.0;100.0
22674;DHT22;11504;43.334;21.918;2023-07-22T10:50:43;37.0;100.0
22674;DHT22;11504;43.334;21.918;2023-07-22T10:55:23;37.0;100.0
22674;DHT22;11504;43.334;21.918;2023-07-22T11:00:02;37.0;100.0
22674;DHT22;11504;43.334;21.918;2023-07-22T11:04:40;37.0;100.0
22674;DHT22;11504;43.334;21.918;2023-07-22T11:09:38;36.6;100.0
22674;DHT22;11504;43.334;21.918;2023-07-22T11:14:20;36.6;100.0
22674;DHT22;11504;43.334;21.918;2023-07-22T11:19:01;36.3;100.0
22674;DHT22;11504;43.334;21.918;2023-07-22T11:23:37;36.3;100.0
22674;DHT22;11504;43.334;21.918;2023-07-22T11:28:14;36.2;100.0
22674;DHT22;11504;43.334;21.918;2023-07-22T11:32:51;36.2;100.0
22674;DHT22;11504;43.334;21.918;2023-07-22T11:37:28;36.0;100.0
22674;DHT22;11504;43.334;21.918;2023-07-22T11:42:06;36.0;100.0
22674;DHT22;11504;43.334;21.918;2023-07-22T11:46:51;36.0;100.0
22674;DHT22;11504;43.334;21.918;2023-07-22T11:51:42;36.0;100.0
22674;DHT22;11504;43.334;21.918;2023-07-22T11:56:23;35.9;100.0
22674;DHT22;11504;43.334;21.918;2023-07-22T12:01:09;35.9;100.0
22674;DHT22;11504;43.334;21.918;2023-07-22T12:05:47;35.9;100.0
22674;DHT22;11504;43.334;21.918;2023-07-22T12:10:24;36.0;100.0
22674;DHT22;11504;43.334;21.918;2023-07-22T12:15:09;36.0;100.0
22674;DHT22;11504;43.334;21.918;2023-07-22T12:19:53;36.0;100.0
22674;DHT22;11504;43.334;21.918;2023-07-22T12:24:30;36.0;100.0
22674;DHT22;11504;43.334;21.918;2023-07-22T12:29:08;36.0;100.0
22674;DHT22;11504;43.334;21.918;2023-07-22T12:33:45;36.0;100.0
22674;DHT22;11504;43.334;21.918;2023-07-22T12:38:23;36.1;100.0
22674;DHT22;11504;43.334;21.918;2023-07-22T12:43:00;36.1;100.0
22674;DHT22;11504;43.334;21.918;2023-07-22T12:47:37;36.0;100.0
22674;DHT22;11504;43.334;21.918;2023-07-22T12:52:14;36.0;100.0
22674;DHT22;11504;43.334;21.918;2023-07-22T12:56:50;36.0;100.0
22674;DHT22;11504;43.334;21.918;2023-07-22T13:01:26;36.0;100.0
22674;DHT22;11504;43.334;21.918;2023-07-22T13:06:03;36.0;100.0
22674;DHT22;11504;43.334;21.918;2023-07-22T13:10:40;35.9;100.0
22674;DHT22;11504;43.334;21.918;2023-07-22T13:15:16;35.9;100.0
22674;DHT22;11504;43.334;21.918;2023-07-22T13:19:53;35.8;100.0
22674;DHT22;11504;43.334;21.918;2023-07-22T13:24:29;35.8;100.0
22674;DHT22;11504;43.334;21.918;2023-07-22T13:29:05;35.8;100.0
22674;DHT22;11504;43.334;21.918;2023-07-22T13:33:42;35.8;100.0
22674;DHT22;11504;43.334;21.918;2023-07-22T13:38:18;35.7;100.0
22674;DHT22;11504;43.334;21.918;2023-07-22T13:42:54;35.7;100.0
22674;DHT22;11504;43.334;21.918;2023-07-22T13:47:30;35.4;100.0
22674;DHT22;11504;43.334;21.918;2023-07-22T13:52:07;35.4;100.0
22674;DHT22;11504;43.334;21.918;2023-07-22T13:56:43;35.0;100.0
22674;DHT22;11504;43.334;21.918;2023-07-22T14:01:20;35.0;100.0
22674;DHT22;11504;43.334;21.918;2023-07-22T14:05:57;35.0;100.0
22674;DHT22;11504;43.334;21.918;2023-07-22T14:10:34;34.5;100.0
22674;DHT22;11504;43.334;21.918;2023-07-22T14:15:11;34.5;100.0
22674;DHT22;11504;43.334;21.918;2023-07-22T14:19:48;34.0;100.0
22674;DHT22;11504;43.334;21.918;2023-07-22T14:24:24;34.0;100.0
22674;DHT22;11504;43.334;21.918;2023-07-22T14:29:02;33.6;100.0
22674;DHT22;11504;43.334;21.918;2023-07-22T14:33:38;33.6;100.0
22674;DHT22;11504;43.334;21.918;2023-07-22T14:38:15;33.2;100.0
22674;DHT22;11504;43.334;21.918;2023-07-22T14:42:52;33.2;100.0
22674;DHT22;11504;43.334;21.918;2023-07-22T14:47:29;33.2;100.0
22674;DHT22;11504;43.334;21.918;2023-07-22T14:52:06;33.2;100.0
22674;DHT22;11504;43.334;21.918;2023-07-22T14:56:44;33.1;100.0
22674;DHT22;11504;43.334;21.918;2023-07-22T15:01:21;33.1;100.0
22674;DHT22;11504;43.334;21.918;2023-07-22T15:05:58;33.1;100.0
22674;DHT22;11504;43.334;21.918;2023-07-22T15:10:34;32.7;100.0
22674;DHT22;11504;43.334;21.918;2023-07-22T15:15:12;32.7;100.0
22674;DHT22;11504;43.334;21.918;2023-07-22T15:19:49;32.3;100.0
22674;DHT22;11504;43.334;21.918;2023-07-22T15:24:25;32.3;100.0
22674;DHT22;11504;43.334;21.918;2023-07-22T15:29:02;32.2;100.0
22674;DHT22;11504;43.334;21.918;2023-07-22T15:33:39;32.2;100.0
22674;DHT22;11504;43.334;21.918;2023-07-22T15:38:15;32.2;100.0
22674;DHT22;11504;43.334;21.918;2023-07-22T15:42:51;32.2;100.0
22674;DHT22;11504;43.334;21.918;2023-07-22T15:47:28;32.2;100.0
22674;DHT22;11504;43.334;21.918;2023-07-22T15:52:05;32.2;100.0
22674;DHT22;11504;43.334;21.918;2023-07-22T15:56:43;32.2;100.0
22674;DHT22;11504;43.334;21.918;2023-07-22T16:01:19;32.2;100.0
22674;DHT22;11504;43.334;21.918;2023-07-22T16:05:55;32.2;100.0
22674;DHT22;11504;43.334;21.918;2023-07-22T16:10:32;32.2;100.0
22674;DHT22;11504;43.334;21.918;2023-07-22T16:15:09;32.2;100.0
22674;DHT22;11504;43.334;21.918;2023-07-22T16:19:45;32.1;100.0
22674;DHT22;11504;43.334;21.918;2023-07-22T16:24:21;32.1;100.0
22674;DHT22;11504;43.334;21.918;2023-07-22T16:28:57;31.7;100.0
22674;DHT22;11504;43.334;21.918;2023-07-22T16:33:34;31.7;100.0
22674;DHT22;11504;43.334;21.918;2023-07-22T16:38:10;31.3;100.0
22674;DHT22;11504;43.334;21.918;2023-07-22T16:42:47;31.3;100.0
22674;DHT22;11504;43.334;21.918;2023-07-22T16:47:24;31.3;100.0
22674;DHT22;11504;43.334;21.918;2023-07-22T16:52:00;31.3;100.0
22674;DHT22;11504;43.334;21.918;2023-07-22T17:28:58;27.0;100.0
22674;DHT22;11504;43.334;21.918;2023-07-22T17:33:35;27.0;100.0
22674;DHT22;11504;43.334;21.918;2023-07-22T17:38:12;27.0;100.0
22674;DHT22;11504;43.334;21.918;2023-07-22T17:42:48;27.0;100.0
22674;DHT22;11504;43.334;21.918;2023-07-22T17:47:25;27.3;100.0
22674;DHT22;11504;43.334;21.918;2023-07-22T17:52:01;27.3;100.0
22674;DHT22;11504;43.334;21.918;2023-07-22T17:56:37;27.6;100.0
22674;DHT22;11504;43.334;21.918;2023-07-22T18:01:14;27.6;100.0
22674;DHT22;11504;43.334;21.918;2023-07-22T18:05:51;27.6;100.0
22674;DHT22;11504;43.334;21.918;2023-07-22T18:10:28;27.4;100.0
22674;DHT22;11504;43.334;21.918;2023-07-22T18:15:06;27.4;100.0
22674;DHT22;11504;43.334;21.918;2023-07-22T18:19:43;27.2;100.0
22674;DHT22;11504;43.334;21.918;2023-07-22T18:24:20;27.2;100.0
22674;DHT22;11504;43.334;21.918;2023-07-22T18:28:58;27.0;100.0
22674;DHT22;11504;43.334;21.918;2023-07-22T18:33:34;27.0;100.0
22674;DHT22;11504;43.334;21.918;2023-07-22T18:38:11;26.7;100.0
22674;DHT22;11504;43.334;21.918;2023-07-22T18:42:47;26.7;100.0
22674;DHT22;11504;43.334;21.918;2023-07-22T18:47:25;26.7;100.0
22674;DHT22;11504;43.334;21.918;2023-07-22T18:52:01;26.7;100.0
22674;DHT22;11504;43.334;21.918;2023-07-22T18:56:37;26.7;100.0
22674;DHT22;11504;43.334;21.918;2023-07-22T19:01:14;26.7;100.0
22674;DHT22;11504;43.334;21.918;2023-07-22T19:05:52;26.7;100.0
22674;DHT22;11504;43.334;21.918;2023-07-22T19:10:28;26.6;100.0
22674;DHT22;11504;43.334;21.918;2023-07-22T19:15:09;26.6;100.0
22674;DHT22;11504;43.334;21.918;2023-07-22T19:19:46;26.5;100.0
22674;DHT22;11504;43.334;21.918;2023-07-22T19:24:23;26.5;100.0
22674;DHT22;11504;43.334;21.918;2023-07-22T19:28:59;26.4;100.0
22674;DHT22;11504;43.334;21.918;2023-07-22T19:33:36;26.4;100.0
22674;DHT22;11504;43.334;21.918;2023-07-22T19:38:14;26.4;100.0
22674;DHT22;11504;43.334;21.918;2023-07-22T19:42:50;26.4;100.0
22674;DHT22;11504;43.334;21.918;2023-07-22T19:47:27;26.2;100.0
22674;DHT22;11504;43.334;21.918;2023-07-22T19:52:05;26.2;100.0
22674;DHT22;11504;43.334;21.918;2023-07-22T19:56:42;26.1;100.0
22674;DHT22;11504;43.334;21.918;2023-07-22T20:01:19;26.1;100.0
22674;DHT22;11504;43.334;21.918;2023-07-22T20:05:57;26.1;100.0
22674;DHT22;11504;43.334;21.918;2023-07-22T20:10:35;25.8;100.0
22674;DHT22;11504;43.334;21.918;2023-07-22T20:15:13;25.8;100.0
22674;DHT22;11504;43.334;21.918;2023-07-22T20:19:50;25.6;100.0
22674;DHT22;11504;43.334;21.918;2023-07-22T20:24:27;25.6;100.0
22674;DHT22;11504;43.334;21.918;2023-07-22T20:29:03;25.5;100.0
22674;DHT22;11504;43.334;21.918;2023-07-22T20:33:40;25.5;100.0
22674;DHT22;11504;43.334;21.918;2023-07-22T20:38:16;25.4;100.0
22674;DHT22;11504;43.334;21.918;2023-07-22T20:42:53;25.4;100.0
22674;DHT22;11504;43.334;21.918;2023-07-22T20:47:30;25.4;100.0
22674;DHT22;11504;43.334;21.918;2023-07-22T20:52:07;25.4;100.0
22674;DHT22;11504;43.334;21.918;2023-07-22T20:56:46;25.4;100.0
22674;DHT22;11504;43.334;21.918;2023-07-22T21:01:23;25.4;100.0
22674;DHT22;11504;43.334;21.918;2023-07-22T21:06:00;25.4;100.0
22674;DHT22;11504;43.334;21.918;2023-07-22T21:10:37;25.2;100.0
22674;DHT22;11504;43.334;21.918;2023-07-22T21:15:13;25.2;100.0
22674;DHT22;11504;43.334;21.918;2023-07-22T21:19:50;25.1;100.0
22674;DHT22;11504;43.334;21.918;2023-07-22T21:24:26;25.1;100.0
22674;DHT22;11504;43.334;21.918;2023-07-22T21:29:05;25.0;100.0
22674;DHT22;11504;43.334;21.918;2023-07-22T21:33:41;25.0;100.0
22674;DHT22;11504;43.334;21.918;2023-07-22T21:38:17;24.9;100.0
22674;DHT22;11504;43.334;21.918;2023-07-22T21:42:53;24.9;100.0
22674;DHT22;11504;43.334;21.918;2023-07-22T21:47:30;24.9;100.0
22674;DHT22;11504;43.334;21.918;2023-07-22T21:52:07;24.9;100.0
22674;DHT22;11504;43.334;21.918;2023-07-22T21:56:43;24.9;100.0
22674;DHT22;11504;43.334;21.918;2023-07-22T22:01:19;24.9;100.0
22674;DHT22;11504;43.334;21.918;2023-07-22T22:05:58;24.9;100.0
22674;DHT22;11504;43.334;21.918;2023-07-22T22:10:38;24.8;100.0
22674;DHT22;11504;43.334;21.918;2023-07-22T22:15:15;24.8;100.0
22674;DHT22;11504;43.334;21.918;2023-07-22T22:19:51;24.8;100.0
22674;DHT22;11504;43.334;21.918;2023-07-22T22:24:28;24.8;100.0
22674;DHT22;11504;43.334;21.918;2023-07-22T22:29:04;24.8;100.0
22674;DHT22;11504;43.334;21.918;2023-07-22T22:33:41;24.8;100.0
22674;DHT22;11504;43.334;21.918;2023-07-22T22:38:18;24.9;100.0
22674;DHT22;11504;43.334;21.918;2023-07-22T22:42:55;24.9;100.0
22674;DHT22;11504;43.334;21.918;2023-07-22T22:47:31;24.8;100.0
22674;DHT22;11504;43.334;21.918;2023-07-22T22:52:08;24.8;100.0
22674;DHT22;11504;43.334;21.918;2023-07-22T22:56:44;24.8;100.0
22674;DHT22;11504;43.334;21.918;2023-07-22T23:01:21;24.8;100.0
22674;DHT22;11504;43.334;21.918;2023-07-22T23:05:57;24.8;100.0
22674;DHT22;11504;43.334;21.918;2023-07-22T23:10:33;24.7;100.0
22674;DHT22;11504;43.334;21.918;2023-07-22T23:15:10;24.7;100.0
22674;DHT22;11504;43.334;21.918;2023-07-22T23:19:49;24.6;100.0
22674;DHT22;11504;43.334;21.918;2023-07-22T23:24:26;24.6;100.0
22674;DHT22;11504;43.334;21.918;2023-07-22T23:29:02;24.5;100.0
22674;DHT22;11504;43.334;21.918;2023-07-22T23:33:39;24.5;100.0
22674;DHT22;11504;43.334;21.918;2023-07-22T23:38:15;24.4;100.0
22674;DHT22;11504;43.334;21.918;2023-07-22T23:42:52;24.4;100.0
22674;DHT22;11504;43.334;21.918;2023-07-22T23:47:28;24.4;100.0
22674;DHT22;11504;43.334;21.918;2023-07-22T23:52:07;24.4;100.0
22674;DHT22;11504;43.334;21.918;2023-07-22T23:56:43;24.4;100.0
